createdAt,value
2018-06-03T00:00:19.510Z,49.50
2018-06-03T00:02:47.774Z,52.03
2018-06-03T00:05:16.011Z,52.67
2018-06-03T00:07:44.169Z,50.80
2018-06-03T00:10:12.285Z,50.77
2018-06-03T00:12:40.456Z,53.27
2018-06-03T00:15:08.591Z,50.13
2018-06-03T00:17:36.711Z,45.10
2018-06-03T00:20:04.843Z,42.10
2018-06-03T00:22:32.975Z,42.83
2018-06-03T00:25:01.146Z,41.67
2018-06-03T00:27:29.279Z,39.47
2018-06-03T00:29:57.408Z,41.30
2018-06-03T00:32:25.560Z,41.87
2018-06-03T00:34:53.709Z,45.07
2018-06-03T00:37:21.825Z,42.20
2018-06-03T00:39:49.964Z,42.93
2018-06-03T00:42:18.129Z,41.40
2018-06-03T00:44:46.247Z,43.60
2018-06-03T00:47:14.391Z,42.93
2018-06-03T00:49:42.530Z,42.60
2018-06-03T00:52:10.655Z,43.17
2018-06-03T00:54:38.797Z,44.90
2018-06-03T00:57:09.777Z,46.03
2018-06-03T00:59:37.922Z,50.50
2018-06-03T01:02:06.060Z,47.30
2018-06-03T01:04:34.200Z,44.73
2018-06-03T01:07:02.593Z,45.17
2018-06-03T01:09:30.711Z,42.83
2018-06-03T01:11:58.851Z,47.07
2018-06-03T01:14:27.003Z,42.33
2018-06-03T01:16:55.149Z,47.13
2018-06-03T01:19:23.302Z,46.73
2018-06-03T01:21:51.446Z,48.10
2018-06-03T01:24:19.575Z,49.37
2018-06-03T01:26:47.728Z,49.00
2018-06-03T01:29:15.933Z,48.03
2018-06-03T01:31:44.186Z,45.20
2018-06-03T01:34:12.345Z,46.63
2018-06-03T01:36:40.485Z,45.17
2018-06-03T01:39:08.604Z,45.20
2018-06-03T01:41:36.769Z,43.43
2018-06-03T01:44:04.893Z,40.80
2018-06-03T01:46:33.042Z,42.57
2018-06-03T01:49:01.189Z,40.93
2018-06-03T01:51:29.325Z,39.17
2018-06-03T01:53:58.057Z,41.97
2018-06-03T01:56:26.211Z,42.90
2018-06-03T01:58:54.327Z,44.80
2018-06-03T02:01:22.472Z,42.47
2018-06-03T02:03:50.609Z,46.97
2018-06-03T02:06:18.767Z,47.97
2018-06-03T02:08:46.906Z,46.67
2018-06-03T02:11:15.039Z,41.60
2018-06-03T02:13:43.186Z,46.73
2018-06-03T02:16:11.345Z,51.53
2018-06-03T02:18:39.460Z,48.50
2018-06-03T02:21:07.633Z,50.70
2018-06-03T02:23:35.775Z,47.77
2018-06-03T02:26:03.884Z,46.83
2018-06-03T02:28:32.037Z,50.30
2018-06-03T02:31:00.169Z,50.57
2018-06-03T02:33:28.319Z,44.43
2018-06-03T02:35:56.466Z,46.80
2018-06-03T02:38:24.663Z,48.03
2018-06-03T02:40:52.794Z,45.30
2018-06-03T02:43:20.927Z,45.73
2018-06-03T02:45:49.117Z,50.53
2018-06-03T02:48:17.275Z,50.10
2018-06-03T02:50:45.400Z,51.97
2018-06-03T02:53:13.526Z,52.37
2018-06-03T02:55:42.127Z,52.53
2018-06-03T02:58:10.288Z,54.03
2018-06-03T03:00:38.407Z,53.27
2018-06-03T03:03:06.562Z,52.70
2018-06-03T03:05:34.692Z,54.00
2018-06-03T03:08:02.808Z,55.53
2018-06-03T03:10:31.163Z,51.57
2018-06-03T03:12:59.295Z,51.57
2018-06-03T03:15:27.430Z,51.27
2018-06-03T03:17:55.578Z,51.63
2018-06-03T03:20:23.714Z,56.23
2018-06-03T03:22:51.866Z,53.77
2018-06-03T03:25:19.998Z,58.37
2018-06-03T03:27:48.187Z,57.80
2018-06-03T03:30:16.416Z,58.03
2018-06-03T03:32:44.565Z,54.30
2018-06-03T03:35:12.714Z,57.23
2018-06-03T03:37:40.850Z,57.30
2018-06-03T03:40:08.990Z,55.60
2018-06-03T03:42:37.112Z,56.33
2018-06-03T03:45:05.250Z,54.47
2018-06-03T03:47:33.407Z,58.40
2018-06-03T03:50:01.546Z,55.97
2018-06-03T03:52:29.700Z,59.83
2018-06-03T03:54:57.819Z,60.60
2018-06-03T03:57:25.958Z,52.57
2018-06-03T03:59:54.117Z,56.20
2018-06-03T04:02:22.254Z,59.27
2018-06-03T04:04:50.369Z,55.13
2018-06-03T04:08:00.297Z,57.10
2018-06-03T04:10:28.458Z,55.07
2018-06-03T04:12:56.598Z,58.03
2018-06-03T04:15:24.725Z,52.10
2018-06-03T04:17:52.866Z,55.23
2018-06-03T04:20:20.992Z,58.47
2018-06-03T04:22:49.138Z,56.07
2018-06-03T04:25:17.287Z,54.00
2018-06-03T04:27:45.457Z,54.73
2018-06-03T04:30:13.594Z,58.43
2018-06-03T04:32:41.719Z,55.60
2018-06-03T04:35:09.862Z,57.60
2018-06-03T04:37:38.024Z,58.20
2018-06-03T04:40:06.177Z,60.43
2018-06-03T04:42:34.310Z,58.67
2018-06-03T04:45:02.437Z,60.30
2018-06-03T04:47:30.570Z,59.23
2018-06-03T04:49:58.723Z,63.37
2018-06-03T04:52:26.859Z,61.63
2018-06-03T04:54:55.012Z,58.03
2018-06-03T04:57:23.142Z,58.30
2018-06-03T04:59:51.442Z,57.70
2018-06-03T05:02:20.408Z,62.47
2018-06-03T05:04:48.632Z,65.40
2018-06-03T05:07:16.789Z,63.20
2018-06-03T05:09:44.909Z,63.83
2018-06-03T05:12:13.453Z,61.57
2018-06-03T05:14:41.985Z,65.87
2018-06-03T05:17:10.152Z,66.50
2018-06-03T05:19:38.290Z,69.43
2018-06-03T05:22:06.450Z,67.30
2018-06-03T05:24:34.695Z,71.33
2018-06-03T05:27:02.828Z,68.77
2018-06-03T05:29:30.943Z,73.60
2018-06-03T05:31:59.089Z,71.37
2018-06-03T05:34:27.236Z,72.37
2018-06-03T05:36:55.395Z,71.57
2018-06-03T05:39:23.535Z,67.63
2018-06-03T05:41:51.680Z,70.53
2018-06-03T05:44:19.822Z,70.80
2018-06-03T05:46:47.958Z,80.27
2018-06-03T05:49:16.125Z,73.57
2018-06-03T05:51:44.268Z,84.30
2018-06-03T05:54:12.398Z,79.57
2018-06-03T05:56:40.537Z,81.00
2018-06-03T05:59:08.682Z,89.97
2018-06-03T06:01:36.818Z,83.17
2018-06-03T06:04:04.967Z,80.63
2018-06-03T06:06:33.098Z,77.00
2018-06-03T06:09:01.255Z,80.80
2018-06-03T06:11:29.370Z,80.20
2018-06-03T06:13:57.500Z,83.63
2018-06-03T06:16:25.636Z,78.70
2018-06-03T06:18:53.751Z,82.33
2018-06-03T06:21:21.898Z,88.70
2018-06-03T06:23:50.029Z,81.03
2018-06-03T06:26:18.201Z,84.77
2018-06-03T06:28:46.335Z,78.00
2018-06-03T06:31:14.476Z,83.30
2018-06-03T06:33:42.603Z,77.70
2018-06-03T06:36:10.754Z,81.77
2018-06-03T06:38:38.973Z,82.30
2018-06-03T06:41:07.103Z,84.10
2018-06-03T06:43:35.228Z,82.77
2018-06-03T06:46:03.370Z,87.17
2018-06-03T06:48:31.524Z,89.57
2018-06-03T06:50:59.678Z,92.80
2018-06-03T06:53:27.828Z,85.37
2018-06-03T06:55:56.012Z,81.70
2018-06-03T06:58:24.162Z,86.37
2018-06-03T07:00:52.301Z,88.67
2018-06-03T07:03:20.525Z,84.43
2018-06-03T07:05:48.634Z,95.40
2018-06-03T07:08:16.770Z,87.87
2018-06-03T07:10:45.184Z,79.87
2018-06-03T07:13:13.340Z,82.60
2018-06-03T07:15:41.460Z,85.23
2018-06-03T07:18:09.623Z,81.90
2018-06-03T07:20:37.736Z,80.30
2018-06-03T07:23:05.895Z,88.40
2018-06-03T07:25:34.065Z,76.37
2018-06-03T07:28:02.366Z,85.10
2018-06-03T07:30:30.496Z,87.00
2018-06-03T07:32:58.634Z,83.73
2018-06-03T07:35:26.756Z,79.37
2018-06-03T07:37:54.889Z,91.30
2018-06-03T07:40:23.035Z,87.73
2018-06-03T07:42:51.170Z,83.63
2018-06-03T07:45:19.334Z,84.30
2018-06-03T07:47:47.490Z,80.43
2018-06-03T07:50:15.951Z,75.60
2018-06-03T07:52:44.115Z,85.23
2018-06-03T07:55:12.228Z,83.17
2018-06-03T07:57:40.385Z,86.87
2018-06-03T08:00:08.538Z,83.37
2018-06-03T08:02:36.663Z,83.37
2018-06-03T08:05:04.803Z,82.53
2018-06-03T08:07:32.942Z,83.50
2018-06-03T08:10:01.064Z,72.80
2018-06-03T08:12:29.222Z,79.80
2018-06-03T08:14:57.350Z,72.70
2018-06-03T08:17:25.495Z,84.37
2018-06-03T08:19:53.612Z,76.27
2018-06-03T08:22:21.732Z,75.93
2018-06-03T08:24:49.864Z,73.27
2018-06-03T08:27:18.002Z,78.37
2018-06-03T08:29:46.146Z,87.43
2018-06-03T08:32:14.353Z,74.63
2018-06-03T08:34:42.473Z,82.07
2018-06-03T08:37:10.633Z,77.23
2018-06-03T08:39:38.762Z,74.67
2018-06-03T08:42:06.901Z,70.83
2018-06-03T08:44:35.032Z,64.37
2018-06-03T08:47:03.161Z,67.33
2018-06-03T08:49:31.287Z,62.53
2018-06-03T08:51:59.417Z,58.57
2018-06-03T08:54:27.579Z,63.87
2018-06-03T08:56:55.720Z,64.03
2018-06-03T08:59:23.842Z,61.50
2018-06-03T09:01:52.613Z,59.67
2018-06-03T09:04:20.757Z,62.70
2018-06-03T09:06:48.906Z,60.33
2018-06-03T09:09:17.065Z,63.30
2018-06-03T09:11:45.187Z,68.07
2018-06-03T09:14:13.353Z,67.10
2018-06-03T09:16:41.479Z,65.13
2018-06-03T09:19:10.560Z,67.30
2018-06-03T09:21:38.686Z,66.63
2018-06-03T09:24:06.853Z,63.10
2018-06-03T09:26:34.970Z,66.10
2018-06-03T09:29:03.106Z,73.57
2018-06-03T09:31:31.233Z,67.97
2018-06-03T09:33:59.782Z,67.97
2018-06-03T09:36:27.896Z,69.70
2018-06-03T09:38:56.035Z,72.27
2018-06-03T09:41:24.234Z,68.73
2018-06-03T09:43:52.399Z,69.13
2018-06-03T09:46:20.560Z,68.73
2018-06-03T09:48:48.741Z,66.83
2018-06-03T09:51:16.877Z,66.17
2018-06-03T09:53:45.000Z,63.70
2018-06-03T09:56:13.138Z,66.57
2018-06-03T09:58:41.342Z,69.83
2018-06-03T10:01:09.429Z,72.93
2018-06-03T10:03:37.562Z,67.93
2018-06-03T10:06:05.722Z,64.30
2018-06-03T10:08:33.919Z,67.20
2018-06-03T10:11:02.080Z,64.50
2018-06-03T10:13:30.210Z,65.17
2018-06-03T10:15:58.339Z,68.93
2018-06-03T10:18:26.501Z,65.60
2018-06-03T10:20:54.645Z,60.53
2018-06-03T10:23:22.795Z,58.37
2018-06-03T10:25:50.970Z,62.57
2018-06-03T10:28:19.102Z,61.10
2018-06-03T10:30:47.238Z,54.00
2018-06-03T10:33:15.367Z,54.40
2018-06-03T10:35:43.529Z,57.93
2018-06-03T10:38:11.664Z,60.77
2018-06-03T10:40:39.805Z,58.33
2018-06-03T10:43:07.970Z,59.83
2018-06-03T10:45:36.104Z,55.10
2018-06-03T10:48:04.276Z,60.87
2018-06-03T10:50:32.406Z,56.00
2018-06-03T10:53:00.540Z,58.43
2018-06-03T10:55:28.685Z,59.97
2018-06-03T10:57:56.837Z,57.63
2018-06-03T11:00:24.973Z,58.10
2018-06-03T11:02:53.132Z,53.07
2018-06-03T11:05:21.231Z,57.70
2018-06-03T11:07:49.384Z,54.43
2018-06-03T11:10:17.520Z,50.43
2018-06-03T11:12:45.821Z,48.47
2018-06-03T11:15:13.970Z,44.80
2018-06-03T11:17:42.121Z,49.77
2018-06-03T11:20:10.259Z,52.77
2018-06-03T11:22:38.390Z,46.43
2018-06-03T11:25:06.546Z,49.77
2018-06-03T11:27:34.746Z,48.47
2018-06-03T11:30:04.756Z,47.67
2018-06-03T11:32:32.912Z,46.23
2018-06-03T11:35:01.030Z,46.23
2018-06-03T11:37:29.194Z,40.40
2018-06-03T11:39:57.301Z,42.63
2018-06-03T11:42:25.446Z,42.37
2018-06-03T11:44:53.635Z,39.00
2018-06-03T11:47:21.806Z,44.43
2018-06-03T11:49:49.943Z,39.43
2018-06-03T11:52:18.139Z,40.30
2018-06-03T11:54:46.242Z,35.07
2018-06-03T11:57:14.383Z,40.43
2018-06-03T11:59:42.524Z,38.20
2018-06-03T12:02:10.794Z,37.93
2018-06-03T12:04:38.940Z,33.67
2018-06-03T12:07:07.112Z,35.80
2018-06-03T12:09:35.257Z,33.53
2018-06-03T12:12:03.384Z,38.43
2018-06-03T12:14:31.539Z,33.23
2018-06-03T12:16:59.652Z,31.30
2018-06-03T12:19:27.808Z,36.00
2018-06-03T12:21:55.973Z,32.63
2018-06-03T12:24:24.089Z,37.10
2018-06-03T12:26:52.371Z,36.80
2018-06-03T12:29:20.553Z,37.23
2018-06-03T12:31:48.702Z,35.30
2018-06-03T12:34:16.845Z,35.57
2018-06-03T12:36:44.964Z,35.80
2018-06-03T12:39:13.120Z,34.47
2018-06-03T12:41:41.269Z,32.90
2018-06-03T12:44:09.423Z,37.27
2018-06-03T12:46:37.548Z,40.03
2018-06-03T12:49:05.690Z,34.73
2018-06-03T12:51:33.862Z,34.13
2018-06-03T12:54:01.997Z,32.37
2018-06-03T12:56:30.132Z,36.60
2018-06-03T12:58:58.274Z,37.03
2018-06-03T13:01:26.414Z,31.47
2018-06-03T13:03:54.583Z,34.20
2018-06-03T13:06:22.717Z,33.17
2018-06-03T13:08:50.838Z,30.43
2018-06-03T13:11:18.993Z,34.60
2018-06-03T13:13:47.156Z,31.10
2018-06-03T13:16:15.284Z,32.70
2018-06-03T13:18:43.446Z,36.13
2018-06-03T13:21:11.579Z,31.70
2018-06-03T13:23:39.718Z,31.67
2018-06-03T13:26:07.850Z,35.50
2018-06-03T13:28:35.993Z,35.23
2018-06-03T13:31:04.109Z,31.40
2018-06-03T13:33:32.246Z,30.03
2018-06-03T13:36:00.390Z,30.20
2018-06-03T13:38:28.541Z,27.93
2018-06-03T13:40:56.818Z,30.70
2018-06-03T13:43:24.969Z,32.50
2018-06-03T13:45:53.099Z,34.87
2018-06-03T13:48:21.291Z,34.97
2018-06-03T13:50:49.359Z,30.20
2018-06-03T13:53:17.510Z,33.70
2018-06-03T13:55:45.660Z,35.10
2018-06-03T13:58:13.816Z,31.07
2018-06-03T14:00:41.971Z,32.53
2018-06-03T14:03:10.122Z,37.60
2018-06-03T14:05:38.285Z,35.80
2018-06-03T14:08:06.411Z,32.43
2018-06-03T14:10:34.551Z,31.03
2018-06-03T14:13:02.684Z,32.80
2018-06-03T14:15:30.817Z,28.50
2018-06-03T14:17:58.960Z,23.50
2018-06-03T14:20:27.076Z,22.17
2018-06-03T14:22:55.206Z,22.10
2018-06-03T14:25:23.392Z,20.77
2018-06-03T14:27:51.502Z,20.67
2018-06-03T14:30:19.662Z,22.37
2018-06-03T14:32:47.792Z,25.63
2018-06-03T14:35:15.912Z,22.80
2018-06-03T14:37:44.044Z,18.17
2018-06-03T14:40:12.194Z,18.47
2018-06-03T14:42:40.366Z,17.80
2018-06-03T14:45:08.482Z,18.83
2018-06-03T14:47:36.617Z,19.10
2018-06-03T14:50:04.780Z,19.50
2018-06-03T14:52:32.906Z,16.50
2018-06-03T14:55:01.028Z,21.83
2018-06-03T14:57:29.176Z,19.90
2018-06-03T14:59:57.259Z,17.00
2018-06-03T15:02:25.387Z,17.47
2018-06-03T15:04:53.546Z,17.57
2018-06-03T15:07:21.702Z,17.70
2018-06-03T15:09:49.833Z,17.23
2018-06-03T15:12:17.943Z,20.97
2018-06-03T15:14:46.111Z,16.10
2018-06-03T15:17:14.261Z,15.30
2018-06-03T15:19:42.561Z,15.03
2018-06-03T15:22:10.730Z,17.73
2018-06-03T15:24:38.961Z,16.07
2018-06-03T15:27:07.141Z,15.77
2018-06-03T15:29:35.278Z,14.53
2018-06-03T15:32:03.434Z,15.23
2018-06-03T15:34:31.584Z,14.63
2018-06-03T15:36:59.700Z,13.17
2018-06-03T15:39:28.200Z,12.50
2018-06-03T15:41:57.364Z,15.00
2018-06-03T15:44:25.527Z,14.50
2018-06-03T15:46:53.834Z,14.93
2018-06-03T15:49:22.184Z,14.47
2018-06-03T15:51:50.660Z,12.90
2018-06-03T15:54:18.805Z,13.03
2018-06-03T15:56:46.968Z,17.23
2018-06-03T15:59:15.219Z,13.97
2018-06-03T16:01:43.329Z,12.83
2018-06-03T16:04:11.471Z,15.07
2018-06-03T16:06:39.624Z,13.03
2018-06-03T16:09:07.939Z,13.83
2018-06-03T16:11:36.066Z,14.00
2018-06-03T16:14:04.226Z,13.50
2018-06-03T16:16:32.384Z,12.53
2018-06-03T16:19:00.719Z,13.07
2018-06-03T16:21:29.241Z,14.67
2018-06-03T16:23:57.376Z,14.67
2018-06-03T16:26:25.506Z,13.77
2018-06-03T16:28:53.660Z,11.83
2018-06-03T16:31:21.948Z,12.33
2018-06-03T16:33:50.067Z,14.00
2018-06-03T16:36:18.182Z,13.33
2018-06-03T16:38:47.228Z,11.20
2018-06-03T16:41:15.370Z,13.53
2018-06-03T16:43:43.498Z,15.10
2018-06-03T16:46:11.663Z,12.10
2018-06-03T16:48:39.833Z,12.73
2018-06-03T16:51:07.922Z,12.40
2018-06-03T16:53:36.060Z,10.77
2018-06-03T16:56:04.176Z,10.67
2018-06-03T16:58:32.336Z,12.73
2018-06-03T17:01:00.447Z,11.57
2018-06-03T17:03:28.587Z,11.80
2018-06-03T17:05:56.714Z,12.30
2018-06-03T17:08:24.866Z,11.90
2018-06-03T17:10:53.001Z,11.67
2018-06-03T17:13:21.171Z,10.87
2018-06-03T17:15:49.368Z,12.63
2018-06-03T17:18:17.505Z,11.47
2018-06-03T17:20:45.625Z,10.60
2018-06-03T17:23:13.781Z,10.07
2018-06-03T17:25:41.922Z,9.93
2018-06-03T17:28:10.073Z,10.37
2018-06-03T17:30:38.194Z,11.90
2018-06-03T17:33:06.347Z,11.07
2018-06-03T17:35:34.523Z,12.03
2018-06-03T17:38:02.654Z,11.80
2018-06-03T17:40:30.790Z,11.77
2018-06-03T17:42:58.919Z,11.13
2018-06-03T17:45:27.085Z,11.77
2018-06-03T17:47:56.122Z,9.83
2018-06-03T17:50:24.264Z,11.27
2018-06-03T17:52:52.393Z,9.87
2018-06-03T17:55:20.525Z,13.13
2018-06-03T17:57:48.712Z,11.77
2018-06-03T18:00:16.906Z,15.27
2018-06-03T18:02:45.038Z,15.13
2018-06-03T18:05:13.180Z,13.43
2018-06-03T18:07:41.328Z,15.10
2018-06-03T18:10:09.474Z,14.77
2018-06-03T18:12:37.630Z,12.53
2018-06-03T18:15:05.750Z,12.77
2018-06-03T18:17:33.870Z,12.57
2018-06-03T18:20:02.022Z,11.67
2018-06-03T18:22:30.196Z,15.00
2018-06-03T18:24:58.265Z,11.73
2018-06-03T18:27:27.308Z,13.90
2018-06-03T18:29:55.471Z,13.10
2018-06-03T18:32:23.614Z,11.47
2018-06-03T18:34:51.830Z,13.00
2018-06-03T18:37:19.973Z,13.97
2018-06-03T18:39:48.112Z,13.07
2018-06-03T18:42:16.239Z,15.33
2018-06-03T18:44:44.368Z,16.03
2018-06-03T18:47:12.676Z,15.10
2018-06-03T18:49:40.840Z,13.27
2018-06-03T18:52:09.199Z,12.43
2018-06-03T18:54:37.470Z,13.70
2018-06-03T18:57:05.617Z,14.83
2018-06-03T18:59:33.833Z,12.33
2018-06-03T19:02:01.939Z,12.07
2018-06-03T19:04:30.074Z,10.77
2018-06-03T19:06:58.211Z,12.77
2018-06-03T19:09:26.338Z,12.07
2018-06-03T19:11:54.490Z,11.77
2018-06-03T19:14:22.634Z,11.43
2018-06-03T19:16:50.739Z,12.33
2018-06-03T19:19:18.933Z,11.60
2018-06-03T19:21:47.404Z,11.90
2018-06-03T19:24:15.566Z,13.53
2018-06-03T19:26:43.706Z,10.83
2018-06-03T19:29:11.829Z,11.43
2018-06-03T19:31:39.992Z,12.60
2018-06-03T19:34:08.117Z,12.90
2018-06-03T19:36:36.457Z,13.47
2018-06-03T19:39:04.654Z,12.20
2018-06-03T19:41:32.775Z,12.80
2018-06-03T19:44:01.029Z,11.70
2018-06-03T19:46:29.336Z,16.40
2018-06-03T19:48:57.472Z,12.47
2018-06-03T19:51:26.328Z,12.30
2018-06-03T19:53:54.507Z,11.23
2018-06-03T19:56:22.649Z,11.90
2018-06-03T19:58:50.785Z,11.53
2018-06-03T20:01:19.067Z,13.27
2018-06-03T20:03:47.188Z,10.77
2018-06-03T20:06:15.316Z,9.97
2018-06-03T20:08:43.460Z,10.97
2018-06-03T20:11:11.587Z,10.27
2018-06-03T20:13:39.729Z,10.27
2018-06-03T20:16:07.875Z,11.03
2018-06-03T20:18:35.990Z,9.97
2018-06-03T20:21:04.135Z,10.03
2018-06-03T20:23:32.288Z,11.13
2018-06-03T20:26:00.453Z,9.50
2018-06-03T20:28:28.616Z,11.57
2018-06-03T20:30:56.724Z,11.47
2018-06-03T20:33:25.011Z,9.53
2018-06-03T20:35:53.127Z,11.70
2018-06-03T20:38:21.240Z,9.67
2018-06-03T20:40:49.561Z,10.40
2018-06-03T20:43:17.694Z,11.17
2018-06-03T20:45:45.869Z,9.63
2018-06-03T20:48:13.979Z,12.83
2018-06-03T20:50:42.111Z,11.13
2018-06-03T20:53:10.308Z,10.50
2018-06-03T20:55:38.487Z,11.37
2018-06-03T20:58:06.610Z,9.77
2018-06-03T21:00:34.778Z,11.23
2018-06-03T21:03:02.896Z,12.50
2018-06-03T21:05:31.129Z,10.20
2018-06-03T21:07:59.294Z,13.47
2018-06-03T21:10:27.476Z,12.40
2018-06-03T21:12:55.635Z,11.70
2018-06-03T21:15:23.759Z,12.03
2018-06-03T21:17:51.882Z,11.60
2018-06-03T21:20:20.271Z,10.40
2018-06-03T21:22:48.448Z,9.77
2018-06-03T21:25:16.594Z,10.90
2018-06-03T21:27:44.766Z,11.93
2018-06-03T21:30:12.888Z,12.13
2018-06-03T21:32:41.026Z,12.63
2018-06-03T21:35:09.180Z,9.70
2018-06-03T21:37:37.346Z,11.37
2018-06-03T21:40:05.470Z,13.47
2018-06-03T21:42:33.613Z,12.60
2018-06-03T21:45:01.791Z,12.40
2018-06-03T21:47:29.989Z,13.00
2018-06-03T21:49:58.199Z,11.80
2018-06-03T21:52:26.326Z,12.00
2018-06-03T21:54:54.446Z,13.67
2018-06-03T21:57:22.587Z,13.47
2018-06-03T21:59:50.782Z,11.80
2018-06-03T22:02:18.996Z,11.37
2018-06-03T22:04:47.184Z,12.00
2018-06-03T22:07:15.356Z,12.63
2018-06-03T22:09:43.509Z,11.67
2018-06-03T22:12:11.648Z,13.90
2018-06-03T22:14:39.820Z,14.63
2018-06-03T22:17:08.060Z,15.13
2018-06-03T22:19:37.101Z,14.33
2018-06-03T22:22:05.250Z,15.40
2018-06-03T22:24:33.412Z,11.93
2018-06-03T22:27:01.538Z,13.13
2018-06-03T22:29:29.696Z,12.43
2018-06-03T22:31:58.002Z,12.50
2018-06-03T22:34:26.121Z,11.57
2018-06-03T22:36:54.273Z,12.37
2018-06-03T22:39:22.449Z,13.77
2018-06-03T22:41:50.756Z,13.47
2018-06-03T22:44:18.896Z,13.47
2018-06-03T22:46:47.027Z,14.13
2018-06-03T22:49:15.171Z,13.83
2018-06-03T22:51:43.328Z,13.50
2018-06-03T22:54:11.471Z,13.13
2018-06-03T22:56:39.603Z,14.63
2018-06-03T22:59:07.758Z,13.83
2018-06-03T23:01:35.891Z,15.00
2018-06-03T23:04:04.032Z,13.43
2018-06-03T23:06:32.192Z,13.70
2018-06-03T23:09:00.404Z,12.97
2018-06-03T23:11:28.537Z,12.83
2018-06-03T23:13:56.696Z,15.77
2018-06-03T23:16:24.816Z,16.03
2018-06-03T23:18:53.120Z,19.03
2018-06-03T23:21:21.251Z,15.57
2018-06-03T23:23:49.381Z,15.30
2018-06-03T23:26:17.540Z,16.37
2018-06-03T23:28:45.652Z,15.33
2018-06-03T23:31:13.784Z,16.30
2018-06-03T23:33:41.922Z,16.17
2018-06-03T23:36:10.077Z,15.77
2018-06-03T23:38:38.214Z,15.80
2018-06-03T23:41:06.342Z,15.70
2018-06-03T23:43:34.630Z,16.80
2018-06-03T23:46:02.781Z,17.67
2018-06-03T23:48:30.913Z,14.23
2018-06-03T23:50:59.069Z,15.57
2018-06-03T23:53:27.220Z,15.97
2018-06-03T23:55:55.491Z,17.53
2018-06-03T23:58:23.649Z,14.10
